sensor_id;sensor_type;location;lat;lon;timestamp;P1;durP1;ratioP1;P2;durP2;ratioP2
31676;SDS011;18385;51.572;6.578;2023-03-26T00:01:26;0.00;;;0.00;;
31676;SDS011;18385;51.572;6.578;2023-03-26T00:03:53;0.00;;;0.00;;
31676;SDS011;18385;51.572;6.578;2023-03-26T00:06:22;0.00;;;0.00;;
31676;SDS011;18385;51.572;6.578;2023-03-26T00:08:50;0.00;;;0.00;;
31676;SDS011;18385;51.572;6.578;2023-03-26T00:11:17;0.00;;;0.00;;
31676;SDS011;18385;51.572;6.578;2023-03-26T00:13:45;0.00;;;0.00;;
31676;SDS011;18385;51.572;6.578;2023-03-26T00:16:12;0.00;;;0.00;;
31676;SDS011;18385;51.572;6.578;2023-03-26T00:18:40;0.00;;;0.00;;
31676;SDS011;18385;51.572;6.578;2023-03-26T00:21:06;0.00;;;0.00;;
31676;SDS011;18385;51.572;6.578;2023-03-26T00:23:35;0.00;;;0.00;;
31676;SDS011;18385;51.572;6.578;2023-03-26T00:26:03;0.00;;;0.00;;
31676;SDS011;18385;51.572;6.578;2023-03-26T00:28:29;0.00;;;0.00;;
31676;SDS011;18385;51.572;6.578;2023-03-26T00:31:05;0.00;;;0.00;;
31676;SDS011;18385;51.572;6.578;2023-03-26T00:33:33;0.00;;;0.00;;
31676;SDS011;18385;51.572;6.578;2023-03-26T00:36:09;0.00;;;0.00;;
31676;SDS011;18385;51.572;6.578;2023-03-26T00:38:38;0.00;;;0.00;;
31676;SDS011;18385;51.572;6.578;2023-03-26T00:41:05;0.00;;;0.00;;
31676;SDS011;18385;51.572;6.578;2023-03-26T00:43:41;0.00;;;0.00;;
31676;SDS011;18385;51.572;6.578;2023-03-26T00:46:10;0.00;;;0.00;;
31676;SDS011;18385;51.572;6.578;2023-03-26T00:48:36;0.00;;;0.00;;
31676;SDS011;18385;51.572;6.578;2023-03-26T00:51:03;0.00;;;0.00;;
31676;SDS011;18385;51.572;6.578;2023-03-26T00:53:30;0.00;;;0.00;;
31676;SDS011;18385;51.572;6.578;2023-03-26T00:55:57;0.43;;;0.28;;
31676;SDS011;18385;51.572;6.578;2023-03-26T00:58:27;0.00;;;0.00;;
31676;SDS011;18385;51.572;6.578;2023-03-26T01:00:57;0.00;;;0.00;;
31676;SDS011;18385;51.572;6.578;2023-03-26T01:03:27;0.00;;;0.00;;
31676;SDS011;18385;51.572;6.578;2023-03-26T01:06:01;0.45;;;0.45;;
31676;SDS011;18385;51.572;6.578;2023-03-26T01:08:49;0.00;;;0.00;;
31676;SDS011;18385;51.572;6.578;2023-03-26T01:13:53;0.00;;;0.00;;
31676;SDS011;18385;51.572;6.578;2023-03-26T01:18:47;0.00;;;0.00;;
31676;SDS011;18385;51.572;6.578;2023-03-26T01:21:18;0.00;;;0.00;;
31676;SDS011;18385;51.572;6.578;2023-03-26T01:23:48;0.00;;;0.00;;
31676;SDS011;18385;51.572;6.578;2023-03-26T01:29:33;0.00;;;0.00;;
31676;SDS011;18385;51.572;6.578;2023-03-26T01:32:26;0.00;;;0.00;;
31676;SDS011;18385;51.572;6.578;2023-03-26T01:35:21;0.00;;;0.00;;
31676;SDS011;18385;51.572;6.578;2023-03-26T01:41:09;0.00;;;0.00;;
31676;SDS011;18385;51.572;6.578;2023-03-26T01:43:57;0.00;;;0.00;;
31676;SDS011;18385;51.572;6.578;2023-03-26T01:46:31;0.00;;;0.00;;
31676;SDS011;18385;51.572;6.578;2023-03-26T01:49:04;0.00;;;0.00;;
31676;SDS011;18385;51.572;6.578;2023-03-26T01:51:37;0.00;;;0.00;;
31676;SDS011;18385;51.572;6.578;2023-03-26T01:54:05;0.00;;;0.00;;
31676;SDS011;18385;51.572;6.578;2023-03-26T01:56:49;0.00;;;0.00;;
31676;SDS011;18385;51.572;6.578;2023-03-26T02:04:34;0.00;;;0.00;;
31676;SDS011;18385;51.572;6.578;2023-03-26T02:10:00;0.00;;;0.00;;
31676;SDS011;18385;51.572;6.578;2023-03-26T02:12:31;0.00;;;0.00;;
31676;SDS011;18385;51.572;6.578;2023-03-26T02:15:00;0.00;;;0.00;;
31676;SDS011;18385;51.572;6.578;2023-03-26T02:17:27;0.00;;;0.00;;
31676;SDS011;18385;51.572;6.578;2023-03-26T02:19:54;0.00;;;0.00;;
31676;SDS011;18385;51.572;6.578;2023-03-26T02:22:21;0.00;;;0.00;;
31676;SDS011;18385;51.572;6.578;2023-03-26T02:24:47;0.00;;;0.00;;
31676;SDS011;18385;51.572;6.578;2023-03-26T02:27:13;0.00;;;0.00;;
31676;SDS011;18385;51.572;6.578;2023-03-26T02:29:42;0.00;;;0.00;;
31676;SDS011;18385;51.572;6.578;2023-03-26T02:32:10;0.00;;;0.00;;
31676;SDS011;18385;51.572;6.578;2023-03-26T02:34:38;0.00;;;0.00;;
31676;SDS011;18385;51.572;6.578;2023-03-26T02:37:05;0.00;;;0.00;;
31676;SDS011;18385;51.572;6.578;2023-03-26T02:39:32;0.00;;;0.00;;
31676;SDS011;18385;51.572;6.578;2023-03-26T02:42:04;0.00;;;0.00;;
31676;SDS011;18385;51.572;6.578;2023-03-26T02:44:36;0.00;;;0.00;;
31676;SDS011;18385;51.572;6.578;2023-03-26T02:47:24;0.22;;;0.22;;
31676;SDS011;18385;51.572;6.578;2023-03-26T02:49:50;0.00;;;0.00;;
31676;SDS011;18385;51.572;6.578;2023-03-26T02:52:46;0.00;;;0.00;;
31676;SDS011;18385;51.572;6.578;2023-03-26T02:55:14;0.00;;;0.00;;
31676;SDS011;18385;51.572;6.578;2023-03-26T02:57:41;0.00;;;0.00;;
31676;SDS011;18385;51.572;6.578;2023-03-26T03:00:16;0.00;;;0.00;;
31676;SDS011;18385;51.572;6.578;2023-03-26T03:02:48;0.00;;;0.00;;
31676;SDS011;18385;51.572;6.578;2023-03-26T03:05:29;0.00;;;0.00;;
31676;SDS011;18385;51.572;6.578;2023-03-26T03:08:19;0.00;;;0.00;;
31676;SDS011;18385;51.572;6.578;2023-03-26T03:13:40;0.00;;;0.00;;
31676;SDS011;18385;51.572;6.578;2023-03-26T03:16:07;0.00;;;0.00;;
31676;SDS011;18385;51.572;6.578;2023-03-26T03:18:34;0.00;;;0.00;;
31676;SDS011;18385;51.572;6.578;2023-03-26T03:21:00;0.00;;;0.00;;
31676;SDS011;18385;51.572;6.578;2023-03-26T03:23:27;0.00;;;0.00;;
31676;SDS011;18385;51.572;6.578;2023-03-26T03:26:02;0.00;;;0.00;;
31676;SDS011;18385;51.572;6.578;2023-03-26T03:28:30;0.00;;;0.00;;
31676;SDS011;18385;51.572;6.578;2023-03-26T03:30:55;0.00;;;0.00;;
31676;SDS011;18385;51.572;6.578;2023-03-26T03:33:29;0.00;;;0.00;;
31676;SDS011;18385;51.572;6.578;2023-03-26T03:35:54;0.10;;;0.10;;
31676;SDS011;18385;51.572;6.578;2023-03-26T03:38:22;0.00;;;0.00;;
31676;SDS011;18385;51.572;6.578;2023-03-26T03:40:49;0.00;;;0.00;;
31676;SDS011;18385;51.572;6.578;2023-03-26T03:43:16;0.00;;;0.00;;
31676;SDS011;18385;51.572;6.578;2023-03-26T03:46:02;0.08;;;0.08;;
31676;SDS011;18385;51.572;6.578;2023-03-26T03:48:54;0.00;;;0.00;;
31676;SDS011;18385;51.572;6.578;2023-03-26T03:51:33;0.00;;;0.00;;
31676;SDS011;18385;51.572;6.578;2023-03-26T03:54:05;0.00;;;0.00;;
31676;SDS011;18385;51.572;6.578;2023-03-26T03:56:45;0.00;;;0.00;;
31676;SDS011;18385;51.572;6.578;2023-03-26T03:59:13;0.05;;;0.05;;
31676;SDS011;18385;51.572;6.578;2023-03-26T04:01:40;0.20;;;0.20;;
31676;SDS011;18385;51.572;6.578;2023-03-26T04:04:21;0.00;;;0.00;;
31676;SDS011;18385;51.572;6.578;2023-03-26T04:06:55;0.00;;;0.00;;
31676;SDS011;18385;51.572;6.578;2023-03-26T04:09:22;0.00;;;0.00;;
31676;SDS011;18385;51.572;6.578;2023-03-26T04:11:48;0.00;;;0.00;;
31676;SDS011;18385;51.572;6.578;2023-03-26T04:14:50;0.00;;;0.00;;
31676;SDS011;18385;51.572;6.578;2023-03-26T04:17:18;0.00;;;0.00;;
31676;SDS011;18385;51.572;6.578;2023-03-26T04:19:47;0.00;;;0.00;;
31676;SDS011;18385;51.572;6.578;2023-03-26T04:22:15;0.00;;;0.00;;
31676;SDS011;18385;51.572;6.578;2023-03-26T04:24:56;0.00;;;0.00;;
31676;SDS011;18385;51.572;6.578;2023-03-26T04:27:40;0.00;;;0.00;;
31676;SDS011;18385;51.572;6.578;2023-03-26T04:30:33;0.00;;;0.00;;
31676;SDS011;18385;51.572;6.578;2023-03-26T04:33:08;0.00;;;0.00;;
31676;SDS011;18385;51.572;6.578;2023-03-26T04:35:40;0.00;;;0.00;;
31676;SDS011;18385;51.572;6.578;2023-03-26T04:40:38;0.00;;;0.00;;
31676;SDS011;18385;51.572;6.578;2023-03-26T04:43:17;0.00;;;0.00;;
31676;SDS011;18385;51.572;6.578;2023-03-26T04:46:12;0.00;;;0.00;;
31676;SDS011;18385;51.572;6.578;2023-03-26T04:48:50;0.00;;;0.00;;
31676;SDS011;18385;51.572;6.578;2023-03-26T04:51:18;0.00;;;0.00;;
31676;SDS011;18385;51.572;6.578;2023-03-26T04:53:52;0.00;;;0.00;;
31676;SDS011;18385;51.572;6.578;2023-03-26T04:59:24;0.00;;;0.00;;
31676;SDS011;18385;51.572;6.578;2023-03-26T05:01:54;0.00;;;0.00;;
31676;SDS011;18385;51.572;6.578;2023-03-26T05:04:23;0.00;;;0.00;;
31676;SDS011;18385;51.572;6.578;2023-03-26T05:06:49;0.00;;;0.00;;
31676;SDS011;18385;51.572;6.578;2023-03-26T05:09:21;0.00;;;0.00;;
31676;SDS011;18385;51.572;6.578;2023-03-26T05:12:07;0.00;;;0.00;;
31676;SDS011;18385;51.572;6.578;2023-03-26T05:14:44;0.00;;;0.00;;
31676;SDS011;18385;51.572;6.578;2023-03-26T05:17:16;0.00;;;0.00;;
31676;SDS011;18385;51.572;6.578;2023-03-26T05:19:45;0.00;;;0.00;;
31676;SDS011;18385;51.572;6.578;2023-03-26T05:22:11;0.00;;;0.00;;
31676;SDS011;18385;51.572;6.578;2023-03-26T05:27:17;0.00;;;0.00;;
31676;SDS011;18385;51.572;6.578;2023-03-26T05:29:45;0.00;;;0.00;;
31676;SDS011;18385;51.572;6.578;2023-03-26T05:32:11;0.00;;;0.00;;
31676;SDS011;18385;51.572;6.578;2023-03-26T05:34:38;0.00;;;0.00;;
31676;SDS011;18385;51.572;6.578;2023-03-26T05:37:04;0.00;;;0.00;;
31676;SDS011;18385;51.572;6.578;2023-03-26T05:39:57;0.00;;;0.00;;
31676;SDS011;18385;51.572;6.578;2023-03-26T05:42:38;0.00;;;0.00;;
31676;SDS011;18385;51.572;6.578;2023-03-26T05:45:25;0.00;;;0.00;;
31676;SDS011;18385;51.572;6.578;2023-03-26T05:47:50;6.60;;;1.00;;
31676;SDS011;18385;51.572;6.578;2023-03-26T05:50:21;0.00;;;0.00;;
31676;SDS011;18385;51.572;6.578;2023-03-26T05:52:51;0.00;;;0.00;;
31676;SDS011;18385;51.572;6.578;2023-03-26T05:55:22;0.00;;;0.00;;
31676;SDS011;18385;51.572;6.578;2023-03-26T05:58:06;0.00;;;0.00;;
31676;SDS011;18385;51.572;6.578;2023-03-26T06:00:58;0.00;;;0.00;;
31676;SDS011;18385;51.572;6.578;2023-03-26T06:03:37;0.00;;;0.00;;
31676;SDS011;18385;51.572;6.578;2023-03-26T06:06:15;0.00;;;0.00;;
31676;SDS011;18385;51.572;6.578;2023-03-26T06:08:55;0.00;;;0.00;;
31676;SDS011;18385;51.572;6.578;2023-03-26T06:11:21;0.00;;;0.00;;
31676;SDS011;18385;51.572;6.578;2023-03-26T06:13:46;0.00;;;0.00;;
31676;SDS011;18385;51.572;6.578;2023-03-26T06:16:13;0.00;;;0.00;;
31676;SDS011;18385;51.572;6.578;2023-03-26T06:18:46;0.00;;;0.00;;
31676;SDS011;18385;51.572;6.578;2023-03-26T06:21:33;0.00;;;0.00;;
31676;SDS011;18385;51.572;6.578;2023-03-26T06:24:08;0.00;;;0.00;;
31676;SDS011;18385;51.572;6.578;2023-03-26T06:26:47;0.00;;;0.00;;
31676;SDS011;18385;51.572;6.578;2023-03-26T06:29:39;0.00;;;0.00;;
31676;SDS011;18385;51.572;6.578;2023-03-26T06:32:31;0.00;;;0.00;;
31676;SDS011;18385;51.572;6.578;2023-03-26T06:35:05;0.00;;;0.00;;
31676;SDS011;18385;51.572;6.578;2023-03-26T06:37:30;0.00;;;0.00;;
31676;SDS011;18385;51.572;6.578;2023-03-26T06:39:59;0.00;;;0.00;;
31676;SDS011;18385;51.572;6.578;2023-03-26T06:42:51;0.00;;;0.00;;
31676;SDS011;18385;51.572;6.578;2023-03-26T06:45:37;0.00;;;0.00;;
31676;SDS011;18385;51.572;6.578;2023-03-26T06:48:21;0.00;;;0.00;;
31676;SDS011;18385;51.572;6.578;2023-03-26T06:51:14;0.00;;;0.00;;
31676;SDS011;18385;51.572;6.578;2023-03-26T06:53:58;0.00;;;0.00;;
31676;SDS011;18385;51.572;6.578;2023-03-26T06:56:44;0.08;;;0.08;;
31676;SDS011;18385;51.572;6.578;2023-03-26T06:59:29;0.00;;;0.00;;
31676;SDS011;18385;51.572;6.578;2023-03-26T07:02:13;0.00;;;0.00;;
31676;SDS011;18385;51.572;6.578;2023-03-26T07:04:57;0.00;;;0.00;;
31676;SDS011;18385;51.572;6.578;2023-03-26T07:07:46;0.00;;;0.00;;
31676;SDS011;18385;51.572;6.578;2023-03-26T07:10:30;0.00;;;0.00;;
31676;SDS011;18385;51.572;6.578;2023-03-26T07:13:26;0.00;;;0.00;;
31676;SDS011;18385;51.572;6.578;2023-03-26T07:16:10;0.00;;;0.00;;
31676;SDS011;18385;51.572;6.578;2023-03-26T07:19:02;0.00;;;0.00;;
31676;SDS011;18385;51.572;6.578;2023-03-26T07:21:33;0.00;;;0.00;;
31676;SDS011;18385;51.572;6.578;2023-03-26T07:24:02;0.32;;;0.32;;
31676;SDS011;18385;51.572;6.578;2023-03-26T07:26:50;0.15;;;0.15;;
31676;SDS011;18385;51.572;6.578;2023-03-26T07:32:27;0.00;;;0.00;;
31676;SDS011;18385;51.572;6.578;2023-03-26T07:38:45;0.00;;;0.00;;
31676;SDS011;18385;51.572;6.578;2023-03-26T07:45:02;0.00;;;0.00;;
31676;SDS011;18385;51.572;6.578;2023-03-26T07:48:04;0.00;;;0.00;;
31676;SDS011;18385;51.572;6.578;2023-03-26T07:51:04;0.00;;;0.00;;
31676;SDS011;18385;51.572;6.578;2023-03-26T07:53:50;0.15;;;0.05;;
31676;SDS011;18385;51.572;6.578;2023-03-26T07:57:05;0.08;;;0.08;;
31676;SDS011;18385;51.572;6.578;2023-03-26T07:59:55;0.00;;;0.00;;
31676;SDS011;18385;51.572;6.578;2023-03-26T08:03:00;0.80;;;0.22;;
31676;SDS011;18385;51.572;6.578;2023-03-26T08:22:38;0.00;;;0.00;;
31676;SDS011;18385;51.572;6.578;2023-03-26T08:25:18;0.00;;;0.00;;
31676;SDS011;18385;51.572;6.578;2023-03-26T08:30:27;0.00;;;0.00;;
31676;SDS011;18385;51.572;6.578;2023-03-26T08:33:03;0.00;;;0.00;;
31676;SDS011;18385;51.572;6.578;2023-03-26T08:35:43;0.00;;;0.00;;
31676;SDS011;18385;51.572;6.578;2023-03-26T08:38:11;0.00;;;0.00;;
31676;SDS011;18385;51.572;6.578;2023-03-26T08:46:38;0.00;;;0.00;;
31676;SDS011;18385;51.572;6.578;2023-03-26T09:01:23;0.00;;;0.00;;
31676;SDS011;18385;51.572;6.578;2023-03-26T09:12:38;0.00;;;0.00;;
31676;SDS011;18385;51.572;6.578;2023-03-26T09:29:56;0.00;;;0.00;;
31676;SDS011;18385;51.572;6.578;2023-03-26T09:35:32;0.00;;;0.00;;
31676;SDS011;18385;51.572;6.578;2023-03-26T09:38:10;0.00;;;0.00;;
31676;SDS011;18385;51.572;6.578;2023-03-26T09:49:12;0.00;;;0.00;;
31676;SDS011;18385;51.572;6.578;2023-03-26T10:12:38;0.05;;;0.05;;
31676;SDS011;18385;51.572;6.578;2023-03-26T10:21:28;0.00;;;0.00;;
31676;SDS011;18385;51.572;6.578;2023-03-26T10:23:51;0.00;;;0.00;;
31676;SDS011;18385;51.572;6.578;2023-03-26T10:37:35;0.00;;;0.00;;
31676;SDS011;18385;51.572;6.578;2023-03-26T10:42:54;0.00;;;0.00;;
31676;SDS011;18385;51.572;6.578;2023-03-26T10:46:02;0.00;;;0.00;;
31676;SDS011;18385;51.572;6.578;2023-03-26T10:48:32;0.00;;;0.00;;
31676;SDS011;18385;51.572;6.578;2023-03-26T10:56:44;0.00;;;0.00;;
31676;SDS011;18385;51.572;6.578;2023-03-26T10:59:14;0.13;;;0.13;;
31676;SDS011;18385;51.572;6.578;2023-03-26T11:07:46;0.10;;;0.10;;
31676;SDS011;18385;51.572;6.578;2023-03-26T11:12:56;0.00;;;0.00;;
31676;SDS011;18385;51.572;6.578;2023-03-26T11:15:29;0.00;;;0.00;;
31676;SDS011;18385;51.572;6.578;2023-03-26T11:26:55;0.00;;;0.00;;
31676;SDS011;18385;51.572;6.578;2023-03-26T11:34:44;0.00;;;0.00;;
31676;SDS011;18385;51.572;6.578;2023-03-26T11:40:32;0.00;;;0.00;;
31676;SDS011;18385;51.572;6.578;2023-03-26T11:43:06;0.00;;;0.00;;
31676;SDS011;18385;51.572;6.578;2023-03-26T11:45:38;0.00;;;0.00;;
31676;SDS011;18385;51.572;6.578;2023-03-26T11:51:50;0.00;;;0.00;;
31676;SDS011;18385;51.572;6.578;2023-03-26T11:54:16;0.00;;;0.00;;
31676;SDS011;18385;51.572;6.578;2023-03-26T11:56:59;0.00;;;0.00;;
31676;SDS011;18385;51.572;6.578;2023-03-26T11:59:30;0.00;;;0.00;;
31676;SDS011;18385;51.572;6.578;2023-03-26T12:04:51;0.00;;;0.00;;
31676;SDS011;18385;51.572;6.578;2023-03-26T12:07:40;0.00;;;0.00;;
31676;SDS011;18385;51.572;6.578;2023-03-26T12:10:20;0.00;;;0.00;;
31676;SDS011;18385;51.572;6.578;2023-03-26T12:12:55;0.15;;;0.15;;
31676;SDS011;18385;51.572;6.578;2023-03-26T12:15:49;0.00;;;0.00;;
31676;SDS011;18385;51.572;6.578;2023-03-26T12:21:42;0.00;;;0.00;;
31676;SDS011;18385;51.572;6.578;2023-03-26T12:24:23;0.00;;;0.00;;
31676;SDS011;18385;51.572;6.578;2023-03-26T12:26:58;0.00;;;0.00;;
31676;SDS011;18385;51.572;6.578;2023-03-26T12:29:51;0.00;;;0.00;;
31676;SDS011;18385;51.572;6.578;2023-03-26T12:32:24;0.00;;;0.00;;
31676;SDS011;18385;51.572;6.578;2023-03-26T12:34:57;0.00;;;0.00;;
31676;SDS011;18385;51.572;6.578;2023-03-26T12:37:32;0.00;;;0.00;;
31676;SDS011;18385;51.572;6.578;2023-03-26T12:40:22;0.00;;;0.00;;
31676;SDS011;18385;51.572;6.578;2023-03-26T12:43:01;0.00;;;0.00;;
31676;SDS011;18385;51.572;6.578;2023-03-26T12:45:43;0.00;;;0.00;;
31676;SDS011;18385;51.572;6.578;2023-03-26T12:48:14;0.00;;;0.00;;
31676;SDS011;18385;51.572;6.578;2023-03-26T12:53:58;0.00;;;0.00;;
31676;SDS011;18385;51.572;6.578;2023-03-26T12:59:49;0.00;;;0.00;;
31676;SDS011;18385;51.572;6.578;2023-03-26T13:19:39;0.00;;;0.00;;
31676;SDS011;18385;51.572;6.578;2023-03-26T13:22:28;0.00;;;0.00;;
31676;SDS011;18385;51.572;6.578;2023-03-26T13:25:25;0.00;;;0.00;;
31676;SDS011;18385;51.572;6.578;2023-03-26T13:39:56;0.00;;;0.00;;
31676;SDS011;18385;51.572;6.578;2023-03-26T13:42:18;0.00;;;0.00;;
31676;SDS011;18385;51.572;6.578;2023-03-26T13:48:01;0.00;;;0.00;;
31676;SDS011;18385;51.572;6.578;2023-03-26T13:50:34;0.00;;;0.00;;
31676;SDS011;18385;51.572;6.578;2023-03-26T13:53:16;0.00;;;0.00;;
31676;SDS011;18385;51.572;6.578;2023-03-26T13:55:49;0.00;;;0.00;;
31676;SDS011;18385;51.572;6.578;2023-03-26T13:58:25;0.00;;;0.00;;
31676;SDS011;18385;51.572;6.578;2023-03-26T14:00:58;0.00;;;0.00;;
31676;SDS011;18385;51.572;6.578;2023-03-26T14:03:52;0.00;;;0.00;;
31676;SDS011;18385;51.572;6.578;2023-03-26T14:09:39;0.00;;;0.00;;
31676;SDS011;18385;51.572;6.578;2023-03-26T14:15:20;0.00;;;0.00;;
31676;SDS011;18385;51.572;6.578;2023-03-26T14:18:36;0.00;;;0.00;;
31676;SDS011;18385;51.572;6.578;2023-03-26T14:23:37;0.00;;;0.00;;
31676;SDS011;18385;51.572;6.578;2023-03-26T14:26:24;0.00;;;0.00;;
31676;SDS011;18385;51.572;6.578;2023-03-26T14:31:57;0.05;;;0.05;;
31676;SDS011;18385;51.572;6.578;2023-03-26T14:40:27;0.00;;;0.00;;
31676;SDS011;18385;51.572;6.578;2023-03-26T14:43:06;0.00;;;0.00;;
31676;SDS011;18385;51.572;6.578;2023-03-26T14:45:46;0.00;;;0.00;;
31676;SDS011;18385;51.572;6.578;2023-03-26T14:48:30;0.00;;;0.00;;
31676;SDS011;18385;51.572;6.578;2023-03-26T14:54:17;0.00;;;0.00;;
31676;SDS011;18385;51.572;6.578;2023-03-26T15:14:02;0.00;;;0.00;;
31676;SDS011;18385;51.572;6.578;2023-03-26T15:27:57;0.00;;;0.00;;
31676;SDS011;18385;51.572;6.578;2023-03-26T15:45:43;0.00;;;0.00;;
31676;SDS011;18385;51.572;6.578;2023-03-26T15:51:13;0.00;;;0.00;;
31676;SDS011;18385;51.572;6.578;2023-03-26T15:57:00;0.13;;;0.13;;
31676;SDS011;18385;51.572;6.578;2023-03-26T15:59:53;0.00;;;0.00;;
31676;SDS011;18385;51.572;6.578;2023-03-26T16:05:30;0.00;;;0.00;;
31676;SDS011;18385;51.572;6.578;2023-03-26T16:24:10;11.32;;;3.10;;
31676;SDS011;18385;51.572;6.578;2023-03-26T16:29:16;13.60;;;4.38;;
31676;SDS011;18385;51.572;6.578;2023-03-26T16:32:08;7.80;;;2.00;;
31676;SDS011;18385;51.572;6.578;2023-03-26T16:34:44;8.98;;;2.10;;
31676;SDS011;18385;51.572;6.578;2023-03-26T16:42:50;10.23;;;1.75;;
31676;SDS011;18385;51.572;6.578;2023-03-26T16:45:37;16.85;;;1.52;;
31676;SDS011;18385;51.572;6.578;2023-03-26T16:54:16;7.45;;;2.45;;
31676;SDS011;18385;51.572;6.578;2023-03-26T16:57:17;8.55;;;1.40;;
31676;SDS011;18385;51.572;6.578;2023-03-26T17:03:03;9.50;;;1.67;;
31676;SDS011;18385;51.572;6.578;2023-03-26T17:08:40;8.60;;;1.30;;
31676;SDS011;18385;51.572;6.578;2023-03-26T17:16:15;7.57;;;1.00;;
31676;SDS011;18385;51.572;6.578;2023-03-26T17:27:25;6.80;;;1.13;;
31676;SDS011;18385;51.572;6.578;2023-03-26T17:30:04;10.10;;;1.30;;
31676;SDS011;18385;51.572;6.578;2023-03-26T17:32:56;10.32;;;1.90;;
31676;SDS011;18385;51.572;6.578;2023-03-26T17:35:34;10.82;;;1.38;;
31676;SDS011;18385;51.572;6.578;2023-03-26T17:38:00;5.70;;;1.25;;
31676;SDS011;18385;51.572;6.578;2023-03-26T17:43:31;8.82;;;1.88;;
31676;SDS011;18385;51.572;6.578;2023-03-26T17:46:04;3.65;;;0.95;;
31676;SDS011;18385;51.572;6.578;2023-03-26T17:48:39;5.68;;;1.00;;
31676;SDS011;18385;51.572;6.578;2023-03-26T17:51:27;11.60;;;2.13;;
31676;SDS011;18385;51.572;6.578;2023-03-26T17:53:54;4.85;;;1.38;;
31676;SDS011;18385;51.572;6.578;2023-03-26T17:56:24;10.30;;;1.58;;
31676;SDS011;18385;51.572;6.578;2023-03-26T17:58:53;10.77;;;1.35;;
31676;SDS011;18385;51.572;6.578;2023-03-26T18:01:38;10.68;;;2.22;;
31676;SDS011;18385;51.572;6.578;2023-03-26T18:04:07;7.15;;;1.55;;
31676;SDS011;18385;51.572;6.578;2023-03-26T18:09:48;7.03;;;1.30;;
31676;SDS011;18385;51.572;6.578;2023-03-26T18:17:48;4.18;;;0.80;;
31676;SDS011;18385;51.572;6.578;2023-03-26T18:20:22;9.07;;;1.10;;
31676;SDS011;18385;51.572;6.578;2023-03-26T18:22:50;11.98;;;1.00;;
31676;SDS011;18385;51.572;6.578;2023-03-26T18:25:22;12.98;;;1.88;;
31676;SDS011;18385;51.572;6.578;2023-03-26T18:27:53;11.18;;;2.10;;
31676;SDS011;18385;51.572;6.578;2023-03-26T18:30:21;10.00;;;1.90;;
31676;SDS011;18385;51.572;6.578;2023-03-26T18:33:02;8.00;;;1.60;;
31676;SDS011;18385;51.572;6.578;2023-03-26T18:35:39;4.32;;;0.73;;
31676;SDS011;18385;51.572;6.578;2023-03-26T18:38:17;7.90;;;1.50;;
31676;SDS011;18385;51.572;6.578;2023-03-26T18:40:46;10.63;;;1.38;;
31676;SDS011;18385;51.572;6.578;2023-03-26T18:43:15;8.18;;;1.75;;
31676;SDS011;18385;51.572;6.578;2023-03-26T18:45:44;7.80;;;1.63;;
31676;SDS011;18385;51.572;6.578;2023-03-26T18:48:22;4.22;;;0.70;;
31676;SDS011;18385;51.572;6.578;2023-03-26T18:50:59;8.63;;;1.67;;
31676;SDS011;18385;51.572;6.578;2023-03-26T18:53:26;6.85;;;1.25;;
31676;SDS011;18385;51.572;6.578;2023-03-26T18:55:55;7.72;;;0.95;;
31676;SDS011;18385;51.572;6.578;2023-03-26T18:58:23;7.88;;;1.33;;
31676;SDS011;18385;51.572;6.578;2023-03-26T19:01:02;7.30;;;1.67;;
31676;SDS011;18385;51.572;6.578;2023-03-26T19:03:35;9.43;;;0.98;;
31676;SDS011;18385;51.572;6.578;2023-03-26T19:06:07;5.90;;;1.00;;
31676;SDS011;18385;51.572;6.578;2023-03-26T19:08:37;7.63;;;1.33;;
31676;SDS011;18385;51.572;6.578;2023-03-26T19:11:07;9.95;;;1.92;;
31676;SDS011;18385;51.572;6.578;2023-03-26T19:13:35;5.45;;;1.00;;
31676;SDS011;18385;51.572;6.578;2023-03-26T19:16:15;6.20;;;0.82;;
31676;SDS011;18385;51.572;6.578;2023-03-26T19:18:50;13.90;;;1.58;;
31676;SDS011;18385;51.572;6.578;2023-03-26T19:21:17;7.35;;;0.75;;
31676;SDS011;18385;51.572;6.578;2023-03-26T19:23:44;5.97;;;0.70;;
31676;SDS011;18385;51.572;6.578;2023-03-26T19:26:11;6.78;;;1.10;;
31676;SDS011;18385;51.572;6.578;2023-03-26T19:28:38;6.53;;;1.10;;
31676;SDS011;18385;51.572;6.578;2023-03-26T19:31:08;6.53;;;0.88;;
31676;SDS011;18385;51.572;6.578;2023-03-26T19:33:38;10.93;;;1.33;;
31676;SDS011;18385;51.572;6.578;2023-03-26T19:38:40;6.45;;;1.80;;
31676;SDS011;18385;51.572;6.578;2023-03-26T19:41:28;6.30;;;1.00;;
31676;SDS011;18385;51.572;6.578;2023-03-26T19:43:57;7.95;;;1.05;;
31676;SDS011;18385;51.572;6.578;2023-03-26T19:46:25;4.57;;;0.68;;
31676;SDS011;18385;51.572;6.578;2023-03-26T19:48:53;5.28;;;0.63;;
31676;SDS011;18385;51.572;6.578;2023-03-26T19:51:22;5.50;;;0.90;;
31676;SDS011;18385;51.572;6.578;2023-03-26T19:53:56;5.93;;;0.65;;
31676;SDS011;18385;51.572;6.578;2023-03-26T19:56:25;9.50;;;0.70;;
31676;SDS011;18385;51.572;6.578;2023-03-26T19:58:52;8.85;;;1.38;;
31676;SDS011;18385;51.572;6.578;2023-03-26T20:01:23;9.52;;;1.27;;
31676;SDS011;18385;51.572;6.578;2023-03-26T20:03:52;6.47;;;0.80;;
31676;SDS011;18385;51.572;6.578;2023-03-26T20:06:21;3.92;;;1.08;;
31676;SDS011;18385;51.572;6.578;2023-03-26T20:08:47;4.10;;;0.75;;
31676;SDS011;18385;51.572;6.578;2023-03-26T20:13:45;11.43;;;1.33;;
31676;SDS011;18385;51.572;6.578;2023-03-26T20:18:53;4.47;;;0.70;;
31676;SDS011;18385;51.572;6.578;2023-03-26T20:21:26;2.92;;;0.68;;
31676;SDS011;18385;51.572;6.578;2023-03-26T20:23:53;10.27;;;1.00;;
31676;SDS011;18385;51.572;6.578;2023-03-26T20:26:19;8.00;;;0.77;;
31676;SDS011;18385;51.572;6.578;2023-03-26T20:28:46;4.82;;;0.80;;
31676;SDS011;18385;51.572;6.578;2023-03-26T20:31:13;7.30;;;1.08;;
31676;SDS011;18385;51.572;6.578;2023-03-26T20:33:50;9.98;;;0.77;;
31676;SDS011;18385;51.572;6.578;2023-03-26T20:36:17;5.47;;;0.82;;
31676;SDS011;18385;51.572;6.578;2023-03-26T20:38:44;10.02;;;1.05;;
31676;SDS011;18385;51.572;6.578;2023-03-26T20:41:15;5.13;;;0.77;;
31676;SDS011;18385;51.572;6.578;2023-03-26T20:43:45;6.88;;;0.88;;
31676;SDS011;18385;51.572;6.578;2023-03-26T20:46:12;4.82;;;0.80;;
31676;SDS011;18385;51.572;6.578;2023-03-26T20:48:42;4.38;;;0.68;;
31676;SDS011;18385;51.572;6.578;2023-03-26T20:51:09;5.30;;;0.75;;
31676;SDS011;18385;51.572;6.578;2023-03-26T20:53:41;8.48;;;0.60;;
31676;SDS011;18385;51.572;6.578;2023-03-26T20:56:12;7.95;;;1.42;;
31676;SDS011;18385;51.572;6.578;2023-03-26T20:58:39;7.10;;;0.65;;
31676;SDS011;18385;51.572;6.578;2023-03-26T21:01:07;8.13;;;0.93;;
31676;SDS011;18385;51.572;6.578;2023-03-26T21:03:38;7.43;;;0.88;;
31676;SDS011;18385;51.572;6.578;2023-03-26T21:06:05;6.38;;;1.15;;
31676;SDS011;18385;51.572;6.578;2023-03-26T21:11:02;12.50;;;2.08;;
31676;SDS011;18385;51.572;6.578;2023-03-26T21:13:32;8.30;;;0.70;;
31676;SDS011;18385;51.572;6.578;2023-03-26T21:16:08;6.93;;;0.68;;
31676;SDS011;18385;51.572;6.578;2023-03-26T21:18:35;9.45;;;1.08;;
31676;SDS011;18385;51.572;6.578;2023-03-26T21:21:05;9.45;;;0.93;;
31676;SDS011;18385;51.572;6.578;2023-03-26T21:23:39;10.77;;;1.02;;
31676;SDS011;18385;51.572;6.578;2023-03-26T21:26:10;10.98;;;0.98;;
31676;SDS011;18385;51.572;6.578;2023-03-26T21:31:12;7.47;;;0.93;;
31676;SDS011;18385;51.572;6.578;2023-03-26T21:33:52;5.50;;;1.02;;
31676;SDS011;18385;51.572;6.578;2023-03-26T21:36:19;11.20;;;1.33;;
31676;SDS011;18385;51.572;6.578;2023-03-26T21:38:45;5.72;;;1.35;;
31676;SDS011;18385;51.572;6.578;2023-03-26T21:41:15;10.27;;;1.92;;
31676;SDS011;18385;51.572;6.578;2023-03-26T21:43:44;9.20;;;1.10;;
31676;SDS011;18385;51.572;6.578;2023-03-26T21:46:10;7.93;;;1.42;;
31676;SDS011;18385;51.572;6.578;2023-03-26T21:48:36;8.50;;;0.93;;
31676;SDS011;18385;51.572;6.578;2023-03-26T21:51:03;5.18;;;0.50;;
31676;SDS011;18385;51.572;6.578;2023-03-26T21:53:29;5.97;;;1.00;;